createdAt,value
2018-07-24T00:00:09.365Z,0.00
2018-07-24T00:01:09.383Z,0.00
2018-07-24T00:02:09.397Z,0.00
2018-07-24T00:03:09.416Z,0.00
2018-07-24T00:04:09.434Z,0.00
2018-07-24T00:05:09.494Z,0.00
2018-07-24T00:06:09.458Z,0.00
2018-07-24T00:07:09.483Z,0.00
2018-07-24T00:08:09.503Z,0.00
2018-07-24T00:09:09.515Z,0.00
2018-07-24T00:10:09.527Z,0.00
2018-07-24T00:11:09.593Z,0.00
2018-07-24T00:12:09.563Z,0.00
2018-07-24T00:13:09.573Z,0.00
2018-07-24T00:14:09.591Z,0.00
2018-07-24T00:15:09.608Z,0.00
2018-07-24T00:16:09.621Z,0.00
2018-07-24T00:17:09.689Z,0.00
2018-07-24T00:18:09.653Z,0.00
2018-07-24T00:19:09.675Z,0.00
2018-07-24T00:20:09.695Z,0.00
2018-07-24T00:21:09.710Z,0.00
2018-07-24T00:22:09.723Z,0.00
2018-07-24T00:23:09.784Z,0.00
2018-07-24T00:24:09.752Z,0.00
2018-07-24T00:25:09.856Z,0.00
2018-07-24T00:26:09.791Z,0.00
2018-07-24T00:27:09.812Z,0.00
2018-07-24T00:28:09.820Z,0.00
2018-07-24T00:29:09.889Z,0.00
2018-07-24T00:30:09.858Z,0.00
2018-07-24T00:31:09.891Z,0.00
2018-07-24T00:32:09.921Z,0.00
2018-07-24T00:33:09.905Z,0.00
2018-07-24T00:34:09.926Z,0.00
2018-07-24T00:35:09.933Z,0.00
2018-07-24T00:36:09.955Z,0.00
2018-07-24T00:37:10.031Z,0.00
2018-07-24T00:38:09.984Z,0.00
2018-07-24T00:39:09.996Z,0.00
2018-07-24T00:40:10.014Z,0.00
2018-07-24T00:41:10.087Z,0.00
2018-07-24T00:42:10.051Z,0.00
2018-07-24T00:43:10.115Z,0.00
2018-07-24T00:44:10.080Z,0.00
2018-07-24T00:45:10.105Z,0.00
2018-07-24T00:46:10.119Z,0.00
2018-07-24T00:47:10.191Z,0.00
2018-07-24T00:48:10.150Z,0.00
2018-07-24T00:49:10.180Z,0.00
2018-07-24T00:50:10.182Z,0.00
2018-07-24T00:51:10.208Z,0.00
2018-07-24T00:52:10.216Z,0.00
2018-07-24T00:53:10.242Z,0.00
2018-07-24T00:54:10.280Z,0.00
2018-07-24T00:55:10.267Z,0.00
2018-07-24T00:56:10.287Z,0.00
2018-07-24T00:57:10.296Z,0.00
2018-07-24T00:58:10.322Z,0.00
2018-07-24T00:59:10.329Z,0.00
2018-07-24T01:00:10.351Z,0.00
2018-07-24T01:01:10.369Z,0.00
2018-07-24T01:02:10.390Z,0.00
2018-07-24T01:03:10.403Z,0.00
2018-07-24T01:04:10.416Z,0.00
2018-07-24T01:05:10.476Z,0.00
2018-07-24T01:06:10.451Z,0.00
2018-07-24T01:07:10.469Z,0.00
2018-07-24T01:08:10.475Z,0.00
2018-07-24T01:09:10.496Z,0.00
2018-07-24T01:10:10.522Z,0.00
2018-07-24T01:11:10.587Z,0.00
2018-07-24T01:12:10.541Z,0.00
2018-07-24T01:13:10.557Z,0.00
2018-07-24T01:14:10.577Z,0.00
2018-07-24T01:15:10.598Z,0.00
2018-07-24T01:16:10.613Z,0.00
2018-07-24T01:17:10.680Z,0.00
2018-07-24T01:18:10.641Z,0.00
2018-07-24T01:19:10.656Z,0.00
2018-07-24T01:20:10.683Z,0.00
2018-07-24T01:21:10.695Z,0.00
2018-07-24T01:22:10.709Z,0.00
2018-07-24T01:23:10.781Z,0.00
2018-07-24T01:24:10.748Z,0.00
2018-07-24T01:25:10.761Z,0.00
2018-07-24T01:26:10.779Z,0.00
2018-07-24T01:27:10.803Z,0.00
2018-07-24T01:28:10.813Z,0.00
2018-07-24T01:29:10.833Z,0.00
2018-07-24T01:30:10.844Z,0.00
2018-07-24T01:31:10.947Z,0.00
2018-07-24T01:32:10.879Z,0.00
2018-07-24T01:33:10.896Z,0.00
2018-07-24T01:34:10.921Z,0.00
2018-07-24T01:35:10.932Z,0.00
2018-07-24T01:36:10.951Z,0.00
2018-07-24T01:37:10.957Z,0.00
2018-07-24T01:38:10.984Z,0.00
2018-07-24T01:39:11.000Z,0.00
2018-07-24T01:40:11.016Z,0.00
2018-07-24T01:41:11.084Z,0.00
2018-07-24T01:42:11.047Z,0.00
2018-07-24T01:43:11.065Z,0.00
2018-07-24T01:44:11.081Z,0.00
2018-07-24T01:45:11.099Z,0.00
2018-07-24T01:46:11.115Z,0.00
2018-07-24T01:47:11.132Z,0.00
2018-07-24T01:48:11.143Z,0.00
2018-07-24T01:49:11.153Z,0.00
2018-07-24T01:50:11.180Z,0.00
2018-07-24T01:51:11.189Z,0.00
2018-07-24T01:52:11.213Z,0.00
2018-07-24T01:53:11.279Z,0.00
2018-07-24T01:54:11.254Z,0.00
2018-07-24T01:55:11.257Z,0.00
2018-07-24T01:56:11.282Z,0.00
2018-07-24T01:57:11.295Z,0.00
2018-07-24T01:58:11.359Z,0.00
2018-07-24T01:59:11.330Z,0.00
2018-07-24T02:00:11.340Z,0.00
2018-07-24T02:01:11.364Z,0.00
2018-07-24T02:02:11.459Z,0.00
2018-07-24T02:03:11.388Z,0.00
2018-07-24T02:04:11.457Z,0.00
2018-07-24T02:05:11.420Z,0.00
2018-07-24T02:06:11.445Z,0.00
2018-07-24T02:07:11.452Z,0.00
2018-07-24T02:08:11.498Z,0.00
2018-07-24T02:09:11.489Z,0.00
2018-07-24T02:10:11.508Z,0.00
2018-07-24T02:11:11.521Z,0.00
2018-07-24T02:12:11.540Z,0.00
2018-07-24T02:13:11.563Z,0.00
2018-07-24T02:14:11.580Z,0.00
2018-07-24T02:15:11.587Z,0.00
2018-07-24T02:16:11.657Z,0.00
2018-07-24T02:17:11.626Z,0.00
2018-07-24T02:18:11.646Z,0.00
2018-07-24T02:19:11.663Z,0.00
2018-07-24T02:20:11.757Z,0.00
2018-07-24T02:21:11.699Z,0.00
2018-07-24T02:22:11.759Z,0.00
2018-07-24T02:23:11.721Z,0.00
2018-07-24T02:24:11.737Z,0.00
2018-07-24T02:25:11.754Z,0.00
2018-07-24T02:26:11.831Z,0.00
2018-07-24T02:27:11.792Z,0.00
2018-07-24T02:28:11.856Z,0.00
2018-07-24T02:29:11.823Z,0.00
2018-07-24T02:30:11.844Z,0.00
2018-07-24T02:31:11.860Z,0.00
2018-07-24T02:32:11.880Z,0.00
2018-07-24T02:33:11.892Z,0.00
2018-07-24T02:34:11.917Z,0.00
2018-07-24T02:35:11.921Z,0.00
2018-07-24T02:36:11.941Z,0.00
2018-07-24T02:37:11.957Z,0.00
2018-07-24T02:38:11.970Z,0.00
2018-07-24T02:39:11.988Z,0.00
2018-07-24T02:40:12.008Z,0.00
2018-07-24T02:41:12.024Z,0.00
2018-07-24T02:42:12.040Z,0.00
2018-07-24T02:43:12.060Z,0.00
2018-07-24T02:44:12.074Z,0.00
2018-07-24T02:45:12.090Z,0.00
2018-07-24T02:46:12.156Z,0.00
2018-07-24T02:47:12.118Z,0.00
2018-07-24T02:48:12.140Z,0.00
2018-07-24T02:49:12.160Z,0.00
2018-07-24T02:50:12.182Z,0.00
2018-07-24T02:51:12.196Z,0.00
2018-07-24T02:52:12.211Z,0.00
2018-07-24T02:53:12.225Z,0.00
2018-07-24T02:54:12.256Z,0.00
2018-07-24T02:55:12.260Z,0.00
2018-07-24T02:56:12.271Z,0.00
2018-07-24T02:57:12.305Z,0.00
2018-07-24T02:58:12.359Z,0.00
2018-07-24T02:59:12.313Z,0.00
2018-07-24T03:00:12.328Z,0.00
2018-07-24T03:01:12.345Z,0.00
2018-07-24T03:02:12.361Z,0.00
2018-07-24T03:03:12.416Z,0.00
2018-07-24T03:04:12.446Z,0.00
2018-07-24T03:05:12.418Z,0.00
2018-07-24T03:06:12.438Z,0.00
2018-07-24T03:07:12.448Z,0.00
2018-07-24T03:08:12.464Z,0.00
2018-07-24T03:09:12.541Z,0.00
2018-07-24T03:10:12.552Z,0.00
2018-07-24T03:11:12.516Z,0.00
2018-07-24T03:12:12.530Z,0.00
2018-07-24T03:13:12.556Z,0.00
2018-07-24T03:14:12.561Z,0.00
2018-07-24T03:15:12.656Z,0.00
2018-07-24T03:16:12.722Z,0.00
2018-07-24T03:17:12.624Z,0.00
2018-07-24T03:18:12.640Z,0.00
2018-07-24T03:19:12.692Z,0.00
2018-07-24T03:20:12.667Z,0.00
2018-07-24T03:21:12.709Z,0.00
2018-07-24T03:22:12.699Z,0.00
2018-07-24T03:23:12.720Z,0.00
2018-07-24T03:24:12.749Z,0.00
2018-07-24T03:25:12.756Z,0.00
2018-07-24T03:26:12.765Z,0.00
2018-07-24T03:27:12.785Z,0.00
2018-07-24T03:28:12.809Z,0.00
2018-07-24T03:29:12.813Z,0.00
2018-07-24T03:30:12.829Z,0.00
2018-07-24T03:31:12.850Z,0.00
2018-07-24T03:32:12.861Z,0.00
2018-07-24T03:33:12.887Z,0.00
2018-07-24T03:34:12.901Z,0.00
2018-07-24T03:35:12.916Z,0.00
2018-07-24T03:36:12.932Z,0.00
2018-07-24T03:37:12.947Z,0.00
2018-07-24T03:38:12.961Z,0.00
2018-07-24T03:39:12.975Z,0.00
2018-07-24T03:40:13.045Z,0.00
2018-07-24T03:41:13.015Z,0.00
2018-07-24T03:42:13.039Z,0.00
2018-07-24T03:43:13.047Z,0.00
2018-07-24T03:44:13.062Z,0.00
2018-07-24T03:45:13.084Z,0.00
2018-07-24T03:46:13.235Z,0.00
2018-07-24T03:47:13.112Z,0.00
2018-07-24T03:48:13.125Z,0.00
2018-07-24T03:49:13.146Z,0.00
2018-07-24T03:50:13.167Z,0.00
2018-07-24T03:51:13.173Z,0.00
2018-07-24T03:52:13.219Z,0.00
2018-07-24T03:53:13.216Z,0.00
2018-07-24T03:54:13.235Z,0.00
2018-07-24T03:55:13.255Z,0.00
2018-07-24T03:56:13.263Z,0.00
2018-07-24T03:57:13.286Z,0.00
2018-07-24T03:58:13.419Z,0.00
2018-07-24T03:59:13.315Z,0.00
2018-07-24T04:00:13.329Z,0.00
2018-07-24T04:01:13.352Z,0.00
2018-07-24T04:02:13.419Z,0.00
2018-07-24T04:03:13.389Z,0.00
2018-07-24T04:04:13.451Z,0.00
2018-07-24T04:05:13.420Z,0.00
2018-07-24T04:06:13.435Z,0.00
2018-07-24T04:07:13.449Z,0.00
2018-07-24T04:08:13.468Z,0.00
2018-07-24T04:09:13.483Z,0.00
2018-07-24T04:10:13.549Z,0.00
2018-07-24T04:11:13.509Z,0.00
2018-07-24T04:12:13.528Z,0.00
2018-07-24T04:13:13.540Z,0.00
2018-07-24T04:14:13.563Z,0.00
2018-07-24T04:15:13.583Z,0.00
2018-07-24T04:16:13.647Z,0.00
2018-07-24T04:17:13.618Z,0.00
2018-07-24T04:18:13.624Z,0.00
2018-07-24T04:19:13.659Z,0.00
2018-07-24T04:20:13.663Z,0.00
2018-07-24T04:21:13.679Z,0.00
2018-07-24T04:22:13.817Z,0.00
2018-07-24T04:23:13.709Z,0.00
2018-07-24T04:24:13.720Z,0.00
2018-07-24T04:25:13.741Z,0.00
2018-07-24T04:26:13.761Z,0.00
2018-07-24T04:27:13.776Z,0.00
2018-07-24T04:28:13.871Z,0.00
2018-07-24T04:29:13.804Z,0.00
2018-07-24T04:30:13.828Z,0.00
2018-07-24T04:31:13.881Z,0.00
2018-07-24T04:32:13.862Z,0.00
2018-07-24T04:33:13.882Z,0.00
2018-07-24T04:34:13.969Z,0.00
2018-07-24T04:35:13.904Z,0.00
2018-07-24T04:36:13.930Z,0.00
2018-07-24T04:37:13.951Z,0.00
2018-07-24T04:38:13.957Z,0.00
2018-07-24T04:39:13.989Z,0.00
2018-07-24T04:40:14.077Z,0.00
2018-07-24T04:41:14.015Z,0.00
2018-07-24T04:42:14.026Z,0.00
2018-07-24T04:43:14.045Z,0.00
2018-07-24T04:44:14.067Z,0.00
2018-07-24T04:45:14.080Z,0.00
2018-07-24T04:46:14.173Z,0.00
2018-07-24T04:47:14.109Z,0.00
2018-07-24T04:48:14.121Z,0.00
2018-07-24T04:49:14.147Z,0.00
2018-07-24T04:50:14.159Z,0.00
2018-07-24T04:51:14.183Z,0.00
2018-07-24T04:52:14.310Z,0.00
2018-07-24T04:53:14.205Z,0.00
2018-07-24T04:54:14.223Z,0.00
2018-07-24T04:55:14.239Z,0.00
2018-07-24T04:56:14.252Z,0.00
2018-07-24T04:57:14.276Z,0.00
2018-07-24T04:58:14.340Z,0.00
2018-07-24T04:59:14.314Z,0.00
2018-07-24T05:00:14.321Z,0.00
2018-07-24T05:01:14.341Z,0.00
2018-07-24T05:02:14.356Z,0.00
2018-07-24T05:03:14.420Z,0.00
2018-07-24T05:04:14.446Z,0.00
2018-07-24T05:05:14.409Z,0.00
2018-07-24T05:06:14.434Z,0.00
2018-07-24T05:07:14.438Z,0.00
2018-07-24T05:08:14.463Z,0.00
2018-07-24T05:09:14.474Z,0.00
2018-07-24T05:10:14.552Z,0.00
2018-07-24T05:11:14.508Z,0.00
2018-07-24T05:12:14.526Z,0.00
2018-07-24T05:13:14.539Z,0.00
2018-07-24T05:14:14.553Z,0.00
2018-07-24T05:15:14.575Z,0.00
2018-07-24T05:16:14.640Z,0.00
2018-07-24T05:17:14.608Z,0.00
2018-07-24T05:18:14.631Z,0.00
2018-07-24T05:19:14.636Z,0.00
2018-07-24T05:20:14.659Z,0.00
2018-07-24T05:21:14.673Z,0.00
2018-07-24T05:22:14.687Z,0.00
2018-07-24T05:23:14.780Z,0.00
2018-07-24T05:24:14.718Z,0.00
2018-07-24T05:25:14.738Z,0.00
2018-07-24T05:26:14.819Z,0.00
2018-07-24T05:27:14.769Z,0.00
2018-07-24T05:28:14.833Z,0.00
2018-07-24T05:29:14.803Z,0.00
2018-07-24T05:30:14.822Z,0.00
2018-07-24T05:31:14.839Z,0.00
2018-07-24T05:32:14.855Z,0.00
2018-07-24T05:33:14.947Z,0.00
2018-07-24T05:34:14.936Z,5.63
2018-07-24T05:35:14.900Z,5.63
2018-07-24T05:36:14.917Z,5.63
2018-07-24T05:37:14.931Z,5.63
2018-07-24T05:38:14.947Z,5.63
2018-07-24T05:39:14.975Z,5.63
2018-07-24T05:40:15.048Z,5.63
2018-07-24T05:41:15.010Z,11.25
2018-07-24T05:42:15.114Z,11.25
2018-07-24T05:43:15.042Z,11.25
2018-07-24T05:44:15.055Z,11.25
2018-07-24T05:45:15.068Z,11.25
2018-07-24T05:46:15.141Z,11.25
2018-07-24T05:47:15.105Z,11.25
2018-07-24T05:48:15.188Z,16.88
2018-07-24T05:49:15.140Z,16.88
2018-07-24T05:50:15.158Z,16.88
2018-07-24T05:51:15.174Z,22.50
2018-07-24T05:52:15.253Z,22.50
2018-07-24T05:53:15.204Z,22.50
2018-07-24T05:54:15.302Z,22.50
2018-07-24T05:55:15.240Z,22.50
2018-07-24T05:56:15.257Z,22.50
2018-07-24T05:57:15.277Z,22.50
2018-07-24T05:58:15.357Z,22.50
2018-07-24T05:59:15.312Z,22.50
2018-07-24T06:00:15.319Z,28.13
2018-07-24T06:01:15.336Z,28.13
2018-07-24T06:02:15.352Z,28.13
2018-07-24T06:03:15.369Z,28.13
2018-07-24T06:04:15.434Z,33.75
2018-07-24T06:05:15.401Z,33.75
2018-07-24T06:06:15.419Z,33.75
2018-07-24T06:07:15.474Z,33.75
2018-07-24T06:08:15.456Z,39.38
2018-07-24T06:09:15.478Z,39.38
2018-07-24T06:10:15.540Z,39.38
2018-07-24T06:11:15.507Z,39.38
2018-07-24T06:12:15.528Z,39.38
2018-07-24T06:13:15.601Z,45.00
2018-07-24T06:14:15.558Z,45.00
2018-07-24T06:15:15.580Z,45.00
2018-07-24T06:16:15.640Z,45.00
2018-07-24T06:17:15.609Z,45.00
2018-07-24T06:18:15.632Z,45.00
2018-07-24T06:19:15.638Z,50.63
2018-07-24T06:20:15.656Z,50.63
2018-07-24T06:21:15.675Z,50.63
2018-07-24T06:22:15.737Z,50.63
2018-07-24T06:23:15.751Z,56.25
2018-07-24T06:24:15.779Z,61.88
2018-07-24T06:25:15.739Z,56.25
2018-07-24T06:26:15.758Z,61.88
2018-07-24T06:27:15.780Z,67.50
2018-07-24T06:28:15.851Z,73.13
2018-07-24T06:29:15.851Z,67.50
2018-07-24T06:30:15.847Z,73.13
2018-07-24T06:31:15.846Z,73.13
2018-07-24T06:32:15.866Z,78.75
2018-07-24T06:33:15.886Z,84.38
2018-07-24T06:34:15.945Z,90.00
2018-07-24T06:35:15.907Z,78.75
2018-07-24T06:36:15.926Z,84.38
2018-07-24T06:37:15.939Z,78.75
2018-07-24T06:38:15.960Z,90.00
2018-07-24T06:39:15.984Z,90.00
2018-07-24T06:40:16.047Z,95.63
2018-07-24T06:41:16.021Z,106.88
2018-07-24T06:42:16.031Z,106.88
2018-07-24T06:43:16.115Z,123.75
2018-07-24T06:44:16.091Z,151.88
2018-07-24T06:45:16.078Z,163.13
2018-07-24T06:46:16.101Z,180.00
2018-07-24T06:47:16.113Z,174.38
2018-07-24T06:48:16.129Z,174.38
2018-07-24T06:49:16.178Z,174.38
2018-07-24T06:50:16.170Z,168.75
2018-07-24T06:51:16.268Z,151.88
2018-07-24T06:52:16.244Z,73.13
2018-07-24T06:53:16.224Z,67.50
2018-07-24T06:54:16.238Z,67.50
2018-07-24T06:55:16.304Z,56.25
2018-07-24T06:56:16.270Z,56.25
2018-07-24T06:57:16.287Z,50.63
2018-07-24T06:58:16.351Z,50.63
2018-07-24T06:59:16.324Z,56.25
2018-07-24T07:00:16.342Z,61.88
2018-07-24T07:01:16.361Z,78.75
2018-07-24T07:02:16.466Z,90.00
2018-07-24T07:03:16.421Z,225.00
2018-07-24T07:04:16.459Z,135.00
2018-07-24T07:05:16.428Z,258.75
2018-07-24T07:06:16.439Z,264.38
2018-07-24T07:07:16.455Z,241.88
2018-07-24T07:08:16.557Z,191.25
2018-07-24T07:09:16.496Z,247.50
2018-07-24T07:10:16.661Z,213.75
2018-07-24T07:11:16.519Z,101.25
2018-07-24T07:12:16.540Z,95.63
2018-07-24T07:13:16.663Z,95.63
2018-07-24T07:14:16.613Z,112.50
2018-07-24T07:15:16.595Z,90.00
2018-07-24T07:16:16.724Z,90.00
2018-07-24T07:17:16.626Z,90.00
2018-07-24T07:18:16.662Z,90.00
2018-07-24T07:19:16.662Z,118.13
2018-07-24T07:20:16.687Z,303.75
2018-07-24T07:21:16.702Z,129.38
2018-07-24T07:22:16.766Z,140.63
2018-07-24T07:23:16.742Z,146.25
2018-07-24T07:24:16.754Z,270.00
2018-07-24T07:25:16.779Z,337.50
2018-07-24T07:26:16.856Z,337.50
2018-07-24T07:27:16.822Z,354.38
2018-07-24T07:28:16.873Z,348.75
2018-07-24T07:29:16.913Z,213.75
2018-07-24T07:30:16.851Z,146.25
2018-07-24T07:31:16.879Z,146.25
2018-07-24T07:32:16.970Z,354.38
2018-07-24T07:33:16.909Z,135.00
2018-07-24T07:34:16.977Z,123.75
2018-07-24T07:35:16.945Z,112.50
2018-07-24T07:36:16.955Z,106.88
2018-07-24T07:37:16.982Z,101.25
2018-07-24T07:38:17.001Z,101.25
2018-07-24T07:39:17.084Z,106.88
2018-07-24T07:40:17.085Z,112.50
2018-07-24T07:41:17.057Z,140.63
2018-07-24T07:42:17.069Z,157.50
2018-07-24T07:43:17.081Z,376.88
2018-07-24T07:44:17.113Z,405.00
2018-07-24T07:45:17.155Z,163.13
2018-07-24T07:46:17.254Z,427.50
2018-07-24T07:47:17.151Z,185.63
2018-07-24T07:48:17.167Z,331.88
2018-07-24T07:49:17.198Z,450.00
2018-07-24T07:50:17.217Z,382.50
2018-07-24T07:51:17.230Z,196.88
2018-07-24T07:52:17.296Z,185.63
2018-07-24T07:53:17.259Z,185.63
2018-07-24T07:54:17.277Z,168.75
2018-07-24T07:55:17.295Z,168.75
2018-07-24T07:56:17.313Z,168.75
2018-07-24T07:57:17.334Z,264.38
2018-07-24T07:58:17.347Z,489.38
2018-07-24T07:59:17.370Z,230.63
2018-07-24T08:00:17.386Z,213.75
2018-07-24T08:01:17.407Z,247.50
2018-07-24T08:02:17.424Z,270.00
2018-07-24T08:03:17.491Z,253.13
2018-07-24T08:04:17.609Z,253.13
2018-07-24T08:05:17.476Z,376.88
2018-07-24T08:06:17.496Z,270.00
2018-07-24T08:07:17.509Z,258.75
2018-07-24T08:08:17.542Z,225.00
2018-07-24T08:09:17.569Z,337.50
2018-07-24T08:10:17.631Z,247.50
2018-07-24T08:11:17.601Z,213.75
2018-07-24T08:12:17.682Z,185.63
2018-07-24T08:13:17.791Z,174.38
2018-07-24T08:14:17.648Z,151.88
2018-07-24T08:15:17.668Z,123.75
2018-07-24T08:16:17.743Z,118.13
2018-07-24T08:17:17.700Z,112.50
2018-07-24T08:18:17.726Z,106.88
2018-07-24T08:19:17.735Z,106.88
2018-07-24T08:20:17.762Z,101.25
2018-07-24T08:21:17.809Z,95.63
2018-07-24T08:22:17.884Z,90.00
2018-07-24T08:23:17.810Z,95.63
2018-07-24T08:24:17.834Z,101.25
2018-07-24T08:25:17.850Z,106.88
2018-07-24T08:26:17.866Z,106.88
2018-07-24T08:27:17.957Z,106.88
2018-07-24T08:28:17.952Z,90.00
2018-07-24T08:29:17.928Z,73.13
2018-07-24T08:30:17.951Z,73.13
2018-07-24T08:31:17.961Z,73.13
2018-07-24T08:32:17.981Z,84.38
2018-07-24T08:33:18.006Z,95.63
2018-07-24T08:34:18.017Z,106.88
2018-07-24T08:35:18.043Z,118.13
2018-07-24T08:36:18.052Z,163.13
2018-07-24T08:37:18.071Z,135.00
2018-07-24T08:38:18.098Z,135.00
2018-07-24T08:39:18.111Z,140.63
2018-07-24T08:40:18.124Z,146.25
2018-07-24T08:41:18.150Z,151.88
2018-07-24T08:42:18.174Z,163.13
2018-07-24T08:43:18.180Z,163.13
2018-07-24T08:44:18.202Z,163.13
2018-07-24T08:45:18.222Z,168.75
2018-07-24T08:46:18.233Z,185.63
2018-07-24T08:47:18.252Z,225.00
2018-07-24T08:48:18.310Z,253.13
2018-07-24T08:49:18.436Z,292.50
2018-07-24T08:50:18.308Z,303.75
2018-07-24T08:51:18.324Z,292.50
2018-07-24T08:52:18.541Z,298.13
2018-07-24T08:53:18.727Z,286.88
2018-07-24T08:54:18.590Z,275.63
2018-07-24T08:55:18.913Z,264.38
2018-07-24T08:56:18.427Z,225.00
2018-07-24T08:57:18.490Z,230.63
2018-07-24T08:58:18.565Z,236.25
2018-07-24T08:59:18.476Z,225.00
2018-07-24T09:00:18.494Z,196.88
2018-07-24T09:01:18.516Z,191.25
2018-07-24T09:02:18.535Z,140.63
2018-07-24T09:03:18.605Z,129.38
2018-07-24T09:04:18.671Z,140.63
2018-07-24T09:05:18.581Z,146.25
2018-07-24T09:06:18.611Z,151.88
2018-07-24T09:07:18.628Z,135.00
2018-07-24T09:08:18.651Z,118.13
2018-07-24T09:09:18.661Z,95.63
2018-07-24T09:10:18.793Z,90.00
2018-07-24T09:11:18.697Z,101.25
2018-07-24T09:12:18.714Z,112.50
2018-07-24T09:13:18.733Z,123.75
2018-07-24T09:14:18.749Z,135.00
2018-07-24T09:15:18.771Z,140.63
2018-07-24T09:16:18.845Z,140.63
2018-07-24T09:17:18.808Z,140.63
2018-07-24T09:18:18.835Z,151.88
2018-07-24T09:19:18.844Z,163.13
2018-07-24T09:20:18.872Z,421.88
2018-07-24T09:21:18.886Z,641.25
2018-07-24T09:22:18.953Z,641.25
2018-07-24T09:23:18.957Z,646.88
2018-07-24T09:24:18.942Z,646.88
2018-07-24T09:25:18.962Z,624.38
2018-07-24T09:26:18.978Z,652.50
2018-07-24T09:27:19.001Z,247.50
2018-07-24T09:28:19.017Z,348.75
2018-07-24T09:29:19.039Z,652.50
2018-07-24T09:30:19.049Z,669.38
2018-07-24T09:31:19.070Z,663.75
2018-07-24T09:32:19.089Z,675.00
2018-07-24T09:33:19.167Z,675.00
2018-07-24T09:34:19.127Z,680.63
2018-07-24T09:35:19.196Z,691.88
2018-07-24T09:36:19.172Z,714.38
2018-07-24T09:37:19.189Z,736.88
2018-07-24T09:38:19.207Z,748.13
2018-07-24T09:39:19.280Z,736.88
2018-07-24T09:40:19.292Z,489.38
2018-07-24T09:41:19.295Z,219.38
2018-07-24T09:42:19.287Z,213.75
2018-07-24T09:43:19.316Z,258.75
2018-07-24T09:44:19.341Z,213.75
2018-07-24T09:45:19.407Z,202.50
2018-07-24T09:46:19.373Z,196.88
2018-07-24T09:47:19.423Z,568.13
2018-07-24T09:48:19.413Z,708.75
2018-07-24T09:49:19.447Z,714.38
2018-07-24T09:50:19.459Z,731.25
2018-07-24T09:51:19.484Z,196.88
2018-07-24T09:52:19.497Z,736.88
2018-07-24T09:53:19.535Z,601.88
2018-07-24T09:54:19.547Z,686.25
2018-07-24T09:55:19.564Z,618.75
2018-07-24T09:56:19.641Z,810.00
2018-07-24T09:57:19.649Z,810.00
2018-07-24T09:58:19.619Z,382.50
2018-07-24T09:59:19.708Z,219.38
2018-07-24T10:00:19.674Z,202.50
2018-07-24T10:01:19.690Z,185.63
2018-07-24T10:02:19.712Z,185.63
2018-07-24T10:03:19.785Z,185.63
2018-07-24T10:04:19.751Z,185.63
2018-07-24T10:05:19.800Z,185.63
2018-07-24T10:06:19.795Z,196.88
2018-07-24T10:07:19.809Z,202.50
2018-07-24T10:08:19.835Z,230.63
2018-07-24T10:09:19.903Z,360.00
2018-07-24T10:10:19.877Z,596.25
2018-07-24T10:11:19.896Z,821.25
2018-07-24T10:12:19.920Z,787.50
2018-07-24T10:13:20.101Z,810.00
2018-07-24T10:14:19.962Z,798.75
2018-07-24T10:15:20.040Z,815.63
2018-07-24T10:16:20.011Z,877.50
2018-07-24T10:17:20.017Z,703.13
2018-07-24T10:18:20.047Z,303.75
2018-07-24T10:19:20.056Z,298.13
2018-07-24T10:20:20.081Z,270.00
2018-07-24T10:21:20.157Z,230.63
2018-07-24T10:22:20.197Z,613.13
2018-07-24T10:23:20.152Z,731.25
2018-07-24T10:24:20.245Z,748.13
2018-07-24T10:25:20.196Z,753.75
2018-07-24T10:26:20.212Z,742.50
2018-07-24T10:27:20.291Z,742.50
2018-07-24T10:28:20.256Z,748.13
2018-07-24T10:29:20.280Z,753.75
2018-07-24T10:30:20.353Z,776.25
2018-07-24T10:31:20.313Z,736.88
2018-07-24T10:32:20.343Z,804.38
2018-07-24T10:33:20.409Z,320.63
2018-07-24T10:34:20.375Z,225.00
2018-07-24T10:35:20.408Z,241.88
2018-07-24T10:36:20.491Z,804.38
2018-07-24T10:37:20.445Z,860.63
2018-07-24T10:38:20.472Z,894.38
2018-07-24T10:39:20.489Z,523.13
2018-07-24T10:40:20.516Z,281.25
2018-07-24T10:41:20.536Z,264.38
2018-07-24T10:42:20.570Z,270.00
2018-07-24T10:43:20.575Z,292.50
2018-07-24T10:44:20.599Z,298.13
2018-07-24T10:45:20.615Z,714.38
2018-07-24T10:46:20.629Z,646.88
2018-07-24T10:47:20.671Z,798.75
2018-07-24T10:48:20.686Z,607.50
2018-07-24T10:49:20.748Z,247.50
2018-07-24T10:50:20.716Z,253.13
2018-07-24T10:51:20.743Z,275.63
2018-07-24T10:52:20.769Z,731.25
2018-07-24T10:53:20.778Z,489.38
2018-07-24T10:54:20.808Z,815.63
2018-07-24T10:55:20.919Z,798.75
2018-07-24T10:56:20.845Z,787.50
2018-07-24T10:57:20.917Z,770.63
2018-07-24T10:58:20.886Z,770.63
2018-07-24T10:59:20.907Z,765.00
2018-07-24T11:00:20.929Z,770.63
2018-07-24T11:01:21.004Z,776.25
2018-07-24T11:02:20.969Z,793.13
2018-07-24T11:03:20.992Z,815.63
2018-07-24T11:04:21.017Z,776.25
2018-07-24T11:05:21.139Z,731.25
2018-07-24T11:06:21.064Z,736.88
2018-07-24T11:07:21.152Z,770.63
2018-07-24T11:08:21.097Z,770.63
2018-07-24T11:09:21.127Z,759.38
2018-07-24T11:10:21.144Z,781.88
2018-07-24T11:11:21.167Z,810.00
2018-07-24T11:12:21.195Z,753.75
2018-07-24T11:13:21.216Z,849.38
2018-07-24T11:14:21.232Z,270.00
2018-07-24T11:15:21.253Z,230.63
2018-07-24T11:16:21.281Z,219.38
2018-07-24T11:17:21.299Z,213.75
2018-07-24T11:18:21.324Z,208.13
2018-07-24T11:19:21.353Z,236.25
2018-07-24T11:20:21.450Z,500.63
2018-07-24T11:21:21.385Z,781.88
2018-07-24T11:22:21.481Z,787.50
2018-07-24T11:23:21.558Z,793.13
2018-07-24T11:24:21.449Z,798.75
2018-07-24T11:25:21.472Z,793.13
2018-07-24T11:26:21.547Z,787.50
2018-07-24T11:27:21.590Z,787.50
2018-07-24T11:28:21.609Z,781.88
2018-07-24T11:29:21.572Z,770.63
2018-07-24T11:30:21.580Z,770.63
2018-07-24T11:31:21.611Z,765.00
2018-07-24T11:32:21.673Z,765.00
2018-07-24T11:33:21.779Z,770.63
2018-07-24T11:34:21.671Z,793.13
2018-07-24T11:35:21.685Z,810.00
2018-07-24T11:36:21.795Z,399.38
2018-07-24T11:37:21.733Z,213.75
2018-07-24T11:38:21.809Z,793.13
2018-07-24T11:39:21.825Z,798.75
2018-07-24T11:40:21.818Z,815.63
2018-07-24T11:41:21.825Z,225.00
2018-07-24T11:42:21.848Z,225.00
2018-07-24T11:43:21.868Z,815.63
2018-07-24T11:44:21.941Z,810.00
2018-07-24T11:45:21.908Z,815.63
2018-07-24T11:46:21.932Z,849.38
2018-07-24T11:47:21.961Z,798.75
2018-07-24T11:48:21.983Z,579.38
2018-07-24T11:49:21.997Z,286.88
2018-07-24T11:50:22.082Z,258.75
2018-07-24T11:51:22.070Z,247.50
2018-07-24T11:52:22.075Z,270.00
2018-07-24T11:53:22.090Z,843.75
2018-07-24T11:54:22.118Z,320.63
2018-07-24T11:55:22.135Z,309.38
2018-07-24T11:56:22.167Z,866.25
2018-07-24T11:57:22.182Z,815.63
2018-07-24T11:58:22.192Z,849.38
2018-07-24T11:59:22.227Z,798.75
2018-07-24T12:00:22.248Z,331.88
2018-07-24T12:01:22.275Z,275.63
2018-07-24T12:02:22.286Z,725.63
2018-07-24T12:03:22.356Z,798.75
2018-07-24T12:04:22.365Z,787.50
2018-07-24T12:05:22.355Z,855.00
2018-07-24T12:06:22.377Z,360.00
2018-07-24T12:07:22.393Z,247.50
2018-07-24T12:08:22.469Z,776.25
2018-07-24T12:09:22.437Z,787.50
2018-07-24T12:10:22.519Z,697.50
2018-07-24T12:11:22.483Z,765.00
2018-07-24T12:12:22.511Z,759.38
2018-07-24T12:13:22.534Z,748.13
2018-07-24T12:14:22.547Z,742.50
2018-07-24T12:15:22.571Z,742.50
2018-07-24T12:16:22.679Z,736.88
2018-07-24T12:17:22.618Z,742.50
2018-07-24T12:18:22.638Z,742.50
2018-07-24T12:19:22.652Z,742.50
2018-07-24T12:20:22.734Z,753.75
2018-07-24T12:21:22.707Z,348.75
2018-07-24T12:22:22.750Z,810.00
2018-07-24T12:23:22.754Z,219.38
2018-07-24T12:24:22.768Z,185.63
2018-07-24T12:25:22.788Z,174.38
2018-07-24T12:26:22.822Z,174.38
2018-07-24T12:27:22.837Z,466.88
2018-07-24T12:28:22.859Z,753.75
2018-07-24T12:29:22.882Z,742.50
2018-07-24T12:30:22.901Z,736.88
2018-07-24T12:31:22.925Z,731.25
2018-07-24T12:32:22.999Z,731.25
2018-07-24T12:33:22.971Z,725.63
2018-07-24T12:34:22.988Z,731.25
2018-07-24T12:35:23.004Z,731.25
2018-07-24T12:36:23.031Z,736.88
2018-07-24T12:37:23.050Z,478.13
2018-07-24T12:38:23.087Z,748.13
2018-07-24T12:39:23.088Z,405.00
2018-07-24T12:40:23.119Z,742.50
2018-07-24T12:41:23.147Z,731.25
2018-07-24T12:42:23.157Z,731.25
2018-07-24T12:43:23.179Z,736.88
2018-07-24T12:44:23.202Z,736.88
2018-07-24T12:45:23.231Z,753.75
2018-07-24T12:46:23.245Z,697.50
2018-07-24T12:47:23.273Z,759.38
2018-07-24T12:48:23.292Z,765.00
2018-07-24T12:49:23.364Z,759.38
2018-07-24T12:50:23.338Z,748.13
2018-07-24T12:51:23.356Z,748.13
2018-07-24T12:52:23.530Z,742.50